Aérodrome :
LOGIN :

S'inscrire | Disclaimer

   EN    FR    IT 

 










Légende :    VFR   VFR Marginal   IFR   IFR Intensif   IFR Très Intensif
Visi : 
Plafond : 
>= 8 km
>= 3000ft
5 à 8 km
1000 à 3000 ft
1500m à 5 km
500 à 1000 ft
800 à 1500m
200 à 500 ft
< 800m
< 200 ft
Symboles :   Orages  Brouillard  Fortes neiges  Fortes précipitations  Vent > 20 kt
SIGMETs :   Divers  Orages  Givrage  Turbulence  Onde Orograph.  Cendres Volcan.







- Altitude de l'aérodrome : 876 ft
- Code IATA : MBX


LJMB - Maribor

DERNIER METAR :
  • 301230Z VRB02KT CAVOK 14/02 Q1017

METARs EXPIRÉS :
  • 301200Z VRB02KT CAVOK 14/02 Q1017
  • 301130Z 11005KT 070V170 CAVOK 14/02 Q1018
  • 301100Z 12007KT 080V150 9999 FEW046 SCT056 14/04 Q1018
  • 301030Z VRB03KT 9999 SCT043 14/01 Q1018
  • 301000Z 10005KT 040V180 9999 FEW045 13/02 Q1018

TAF TAF LJMB
Valide du 30 à 12h jusqu'au 01 à 12h UTC


301100Z 3012/0112 07005KT 9999 SCT050
BECMG 3012/3015 13005KT
TEMPO 3021/0112 VRB01KT BKN045
BECMG 0107/0110 18005KT
Pas de NOTAMs connus pour ce terrain.



MET'MAP, la Météo Aéronautique d'un coup d'oeil ! - Copyright ORBIFLY Décembre 2007 - Disclaimer

ORBIFLY MET'MAP TEAM :

Programmation & Développement : Alexandra Zaïnal
Conception & Développement : Baudouin d'Aumeries
Co-Programmation & Développement : Marc-Olivier Méhu
Soutien technique & logistique : Manuel Goepfert

Contact : metmap@orbifly.com




SOURCES & CREDITS :

   NOAA